createdAt,value
2019-06-27T00:01:39.925Z,27.30
2019-06-27T00:04:07.482Z,27.25
2019-06-27T00:06:34.910Z,27.18
2019-06-27T00:09:02.518Z,27.15
2019-06-27T00:11:30.006Z,27.15
2019-06-27T00:13:57.896Z,27.07
2019-06-27T00:16:25.508Z,26.98
2019-06-27T00:18:53.096Z,26.96
2019-06-27T00:21:20.546Z,26.94
2019-06-27T00:23:48.170Z,26.93
2019-06-27T00:26:15.599Z,26.88
2019-06-27T00:28:43.022Z,26.82
2019-06-27T00:31:10.430Z,26.78
2019-06-27T00:33:37.846Z,26.73
2019-06-27T00:36:05.340Z,26.67
2019-06-27T00:38:32.864Z,26.61
2019-06-27T00:41:00.303Z,26.61
2019-06-27T00:43:27.746Z,26.56
2019-06-27T00:45:55.142Z,26.54
2019-06-27T00:48:22.621Z,26.54
2019-06-27T00:50:50.319Z,26.50
2019-06-27T00:53:18.086Z,26.43
2019-06-27T00:55:45.581Z,26.43
2019-06-27T00:58:13.739Z,26.41
2019-06-27T01:00:41.169Z,26.45
2019-06-27T01:03:08.619Z,26.42
2019-06-27T01:05:36.362Z,26.34
2019-06-27T01:08:03.870Z,26.35
2019-06-27T01:10:31.300Z,26.32
2019-06-27T01:12:58.729Z,26.31
2019-06-27T01:15:26.183Z,26.30
2019-06-27T01:17:53.616Z,26.28
2019-06-27T01:20:21.076Z,26.26
2019-06-27T01:22:48.884Z,26.22
2019-06-27T01:25:16.330Z,26.21
2019-06-27T01:27:43.776Z,26.20
2019-06-27T01:30:11.189Z,26.14
2019-06-27T01:32:38.863Z,26.03
2019-06-27T01:35:06.294Z,26.01
2019-06-27T01:37:33.765Z,25.98
2019-06-27T01:40:01.204Z,25.91
2019-06-27T01:42:28.667Z,25.82
2019-06-27T01:44:56.878Z,25.78
2019-06-27T01:47:25.140Z,25.78
2019-06-27T01:49:52.570Z,25.76
2019-06-27T01:52:20.023Z,25.66
2019-06-27T01:54:47.446Z,25.59
2019-06-27T01:57:15.188Z,25.50
2019-06-27T01:59:42.711Z,25.42
2019-06-27T02:02:10.175Z,25.34
2019-06-27T02:04:38.016Z,25.28
2019-06-27T02:07:05.700Z,25.21
2019-06-27T02:09:33.628Z,25.17
2019-06-27T02:12:00.736Z,25.17
2019-06-27T02:14:28.184Z,25.16
2019-06-27T02:16:55.885Z,25.16
2019-06-27T02:19:23.922Z,25.14
2019-06-27T02:21:51.374Z,25.10
2019-06-27T02:24:19.416Z,25.04
2019-06-27T02:26:47.123Z,24.92
2019-06-27T02:29:14.555Z,24.77
2019-06-27T02:31:42.032Z,24.64
2019-06-27T02:34:09.504Z,24.70
2019-06-27T02:36:37.167Z,24.81
2019-06-27T02:39:04.590Z,24.87
2019-06-27T02:41:32.295Z,24.87
2019-06-27T02:43:59.730Z,24.90
2019-06-27T02:46:27.420Z,24.96
2019-06-27T02:48:54.856Z,25.01
2019-06-27T02:51:22.319Z,25.05
2019-06-27T02:53:49.756Z,25.13
2019-06-27T02:56:17.405Z,25.15
2019-06-27T02:58:45.560Z,25.13
2019-06-27T03:01:12.981Z,25.09
2019-06-27T03:03:41.735Z,25.13
2019-06-27T03:06:09.211Z,25.11
2019-06-27T03:08:36.668Z,25.05
2019-06-27T03:11:04.849Z,25.02
2019-06-27T03:13:32.289Z,25.04
2019-06-27T03:16:00.035Z,25.08
2019-06-27T03:18:27.615Z,25.07
2019-06-27T03:20:55.072Z,25.03
2019-06-27T03:23:22.500Z,25.00
2019-06-27T03:25:50.359Z,24.98
2019-06-27T03:28:17.847Z,24.98
2019-06-27T03:30:45.533Z,24.95
2019-06-27T03:33:12.964Z,24.90
2019-06-27T03:35:40.446Z,24.82
2019-06-27T03:38:07.816Z,24.78
2019-06-27T03:40:35.306Z,24.77
2019-06-27T03:43:02.759Z,24.83
2019-06-27T03:45:30.675Z,24.87
2019-06-27T03:47:58.320Z,24.86
2019-06-27T03:50:25.997Z,24.81
2019-06-27T03:52:53.423Z,24.77
2019-06-27T03:55:20.953Z,24.77
2019-06-27T03:57:48.373Z,24.79
2019-06-27T04:00:20.493Z,24.84
2019-06-27T04:02:47.923Z,24.79
2019-06-27T04:09:50.573Z,24.72
2019-06-27T04:12:18.022Z,24.74
2019-06-27T04:14:45.468Z,24.74
2019-06-27T04:17:12.918Z,24.75
2019-06-27T04:19:40.376Z,24.77
2019-06-27T04:22:08.295Z,24.87
2019-06-27T04:24:35.715Z,24.91
2019-06-27T04:27:03.317Z,24.93
2019-06-27T04:29:33.903Z,24.96
2019-06-27T04:31:58.243Z,24.96
2019-06-27T04:34:25.673Z,24.95
2019-06-27T04:36:53.798Z,24.97
2019-06-27T04:39:21.865Z,25.02
2019-06-27T04:41:50.249Z,25.15
2019-06-27T04:44:17.694Z,25.30
2019-06-27T04:46:45.421Z,25.33
2019-06-27T04:49:13.743Z,25.35
2019-06-27T04:51:40.347Z,25.43
2019-06-27T04:54:07.853Z,25.53
2019-06-27T04:56:35.338Z,25.67
2019-06-27T04:59:02.812Z,25.74
2019-06-27T05:01:30.589Z,25.82
2019-06-27T05:03:58.138Z,25.85
2019-06-27T05:06:26.520Z,25.88
2019-06-27T05:08:53.932Z,25.97
2019-06-27T05:11:22.058Z,25.95
2019-06-27T05:13:49.479Z,26.00
2019-06-27T05:16:17.070Z,26.02
2019-06-27T05:18:44.516Z,26.01
2019-06-27T05:21:12.284Z,26.11
2019-06-27T05:23:39.927Z,26.22
2019-06-27T05:26:07.547Z,26.32
2019-06-27T05:28:35.083Z,26.43
2019-06-27T05:31:02.550Z,26.50
2019-06-27T05:33:29.998Z,26.60
2019-06-27T05:35:57.916Z,26.74
2019-06-27T05:38:25.442Z,26.77
2019-06-27T05:40:52.930Z,26.84
2019-06-27T05:43:20.326Z,26.97
2019-06-27T05:45:48.174Z,27.04
2019-06-27T05:48:15.592Z,27.09
2019-06-27T05:50:43.098Z,27.15
2019-06-27T05:53:10.578Z,27.21
2019-06-27T05:55:38.519Z,27.27
2019-06-27T05:58:06.010Z,27.25
2019-06-27T06:00:33.555Z,27.29
2019-06-27T06:03:01.007Z,27.15
2019-06-27T06:05:28.553Z,27.20
2019-06-27T06:07:56.088Z,27.25
2019-06-27T06:10:24.358Z,27.43
2019-06-27T06:12:51.777Z,27.56
2019-06-27T06:15:19.754Z,27.70
2019-06-27T06:17:46.677Z,27.70
2019-06-27T06:20:14.367Z,27.78
2019-06-27T06:22:41.776Z,27.83
2019-06-27T06:25:09.645Z,27.91
2019-06-27T06:27:37.102Z,28.00
2019-06-27T06:30:04.561Z,28.12
2019-06-27T06:32:32.042Z,28.18
2019-06-27T06:35:00.237Z,28.31
2019-06-27T06:37:27.650Z,28.47
2019-06-27T06:39:55.161Z,28.48
2019-06-27T06:42:22.604Z,28.47
2019-06-27T06:44:50.179Z,28.52
2019-06-27T06:47:17.893Z,28.59
2019-06-27T06:49:45.482Z,28.74
2019-06-27T06:52:12.933Z,28.76
2019-06-27T06:54:40.572Z,28.86
2019-06-27T06:57:08.006Z,29.12
2019-06-27T06:59:36.340Z,29.28
2019-06-27T07:02:03.760Z,29.17
2019-06-27T07:04:31.545Z,29.04
2019-06-27T07:06:59.166Z,29.29
2019-06-27T07:09:26.775Z,29.43
2019-06-27T07:11:54.353Z,29.47
2019-06-27T07:14:22.461Z,29.26
2019-06-27T07:16:49.885Z,29.38
2019-06-27T07:19:17.627Z,29.80
2019-06-27T07:21:45.081Z,30.24
2019-06-27T07:24:12.663Z,30.54
2019-06-27T07:26:40.227Z,30.80
2019-06-27T07:29:08.435Z,31.04
2019-06-27T07:31:35.851Z,31.13
2019-06-27T07:34:03.337Z,31.12
2019-06-27T07:36:30.776Z,30.84
2019-06-27T07:38:58.200Z,30.69
2019-06-27T07:41:25.742Z,30.81
2019-06-27T07:43:53.633Z,31.32
2019-06-27T07:46:25.522Z,31.72
2019-06-27T07:48:50.081Z,31.97
2019-06-27T07:51:17.066Z,32.35
2019-06-27T07:53:44.717Z,32.57
2019-06-27T07:56:12.138Z,32.69
2019-06-27T07:58:39.662Z,32.85
2019-06-27T08:01:07.121Z,33.07
2019-06-27T08:03:35.010Z,33.42
2019-06-27T08:06:02.569Z,33.79
2019-06-27T08:08:31.085Z,33.79
2019-06-27T08:10:58.607Z,33.73
2019-06-27T08:13:26.039Z,33.87
2019-06-27T08:15:53.617Z,34.20
2019-06-27T08:18:21.093Z,33.89
2019-06-27T08:20:48.514Z,33.57
2019-06-27T08:23:16.543Z,33.06
2019-06-27T08:25:43.982Z,33.05
2019-06-27T08:28:11.431Z,32.88
2019-06-27T08:30:38.839Z,32.46
2019-06-27T08:33:06.508Z,32.11
2019-06-27T08:35:33.989Z,31.90
2019-06-27T08:38:01.485Z,31.86
2019-06-27T08:40:28.914Z,32.27
2019-06-27T08:42:56.476Z,32.29
2019-06-27T08:45:24.666Z,32.10
2019-06-27T08:47:52.201Z,32.25
2019-06-27T08:50:19.746Z,32.30
2019-06-27T08:52:47.197Z,32.11
2019-06-27T08:55:14.693Z,32.09
2019-06-27T08:57:42.323Z,32.02
2019-06-27T09:00:10.599Z,32.25
2019-06-27T09:02:38.079Z,32.46
2019-06-27T09:05:06.681Z,32.32
2019-06-27T09:07:34.151Z,32.46
2019-06-27T09:10:01.604Z,32.86
2019-06-27T09:12:29.658Z,33.08
2019-06-27T09:14:57.139Z,32.98
2019-06-27T09:17:24.690Z,32.71
2019-06-27T09:19:52.118Z,32.44
2019-06-27T09:22:19.717Z,32.41
2019-06-27T09:24:47.249Z,32.56
2019-06-27T09:27:16.146Z,32.63
2019-06-27T09:29:43.636Z,32.70
2019-06-27T09:32:24.094Z,33.12
2019-06-27T09:34:39.952Z,33.29
2019-06-27T09:37:07.353Z,33.23
2019-06-27T09:39:34.815Z,33.40
2019-06-27T09:42:02.279Z,33.67
2019-06-27T09:44:30.078Z,33.97
2019-06-27T09:46:57.864Z,34.32
2019-06-27T09:49:25.413Z,34.34
2019-06-27T09:51:52.908Z,34.35
2019-06-27T09:54:20.318Z,34.14
2019-06-27T09:56:49.267Z,34.17
2019-06-27T09:59:16.910Z,34.36
2019-06-27T10:01:44.741Z,34.26
2019-06-27T10:04:12.231Z,34.22
2019-06-27T10:06:39.823Z,34.18
2019-06-27T10:09:07.419Z,34.65
2019-06-27T10:11:34.926Z,34.42
2019-06-27T10:14:02.395Z,34.21
2019-06-27T10:16:29.945Z,34.20
2019-06-27T10:18:57.383Z,34.07
2019-06-27T10:21:25.129Z,34.46
2019-06-27T10:23:52.565Z,34.39
2019-06-27T10:26:20.342Z,34.36
2019-06-27T10:28:47.874Z,34.53
2019-06-27T10:31:16.289Z,34.64
2019-06-27T10:33:43.904Z,34.87
2019-06-27T10:36:11.274Z,34.70
2019-06-27T10:38:38.706Z,34.44
2019-06-27T10:41:06.564Z,34.40
2019-06-27T10:43:33.983Z,34.41
2019-06-27T10:46:02.279Z,34.47
2019-06-27T10:48:29.691Z,34.21
2019-06-27T10:50:57.385Z,34.26
2019-06-27T10:53:24.868Z,34.53
2019-06-27T10:55:52.736Z,34.61
2019-06-27T10:58:20.210Z,34.72
2019-06-27T11:00:47.885Z,34.81
2019-06-27T11:03:16.519Z,34.86
2019-06-27T11:05:43.051Z,35.04
2019-06-27T11:08:11.220Z,35.04
2019-06-27T11:10:38.699Z,35.06
2019-06-27T11:13:06.149Z,35.24
2019-06-27T11:15:33.726Z,35.13
2019-06-27T11:18:01.660Z,35.14
2019-06-27T11:20:29.233Z,35.02
2019-06-27T11:22:56.878Z,35.26
2019-06-27T11:25:24.450Z,35.38
2019-06-27T11:27:51.872Z,35.43
2019-06-27T11:30:19.575Z,35.61
2019-06-27T11:32:47.154Z,35.56
2019-06-27T11:35:15.148Z,35.42
2019-06-27T11:37:42.814Z,35.32
2019-06-27T11:40:12.303Z,35.49
2019-06-27T11:42:37.807Z,35.62
2019-06-27T11:45:05.270Z,35.55
2019-06-27T11:47:34.523Z,35.49
2019-06-27T11:50:00.882Z,35.49
2019-06-27T11:52:28.401Z,35.50
2019-06-27T11:54:55.839Z,35.46
2019-06-27T11:57:23.397Z,35.44
2019-06-27T11:59:51.103Z,35.47
2019-06-27T12:02:18.665Z,35.71
2019-06-27T12:04:46.380Z,35.53
2019-06-27T12:07:13.800Z,35.43
2019-06-27T12:09:41.386Z,35.42
2019-06-27T12:12:08.834Z,35.71
2019-06-27T12:14:36.271Z,35.68
2019-06-27T12:17:03.939Z,35.67
2019-06-27T12:19:31.437Z,35.96
2019-06-27T12:21:58.856Z,35.77
2019-06-27T12:24:27.161Z,35.64
2019-06-27T12:26:54.767Z,35.83
2019-06-27T12:29:22.351Z,35.76
2019-06-27T12:31:51.776Z,35.81
2019-06-27T12:34:17.421Z,35.70
2019-06-27T12:36:44.899Z,35.69
2019-06-27T12:39:12.484Z,35.82
2019-06-27T12:41:40.074Z,35.81
2019-06-27T12:44:07.453Z,35.98
2019-06-27T12:46:34.915Z,35.94
2019-06-27T12:49:02.523Z,35.94
2019-06-27T12:51:29.969Z,35.95
2019-06-27T12:53:57.630Z,36.06
2019-06-27T12:56:25.184Z,36.22
2019-06-27T12:58:53.005Z,36.39
2019-06-27T13:01:20.467Z,36.32
2019-06-27T13:03:47.982Z,36.26
2019-06-27T13:06:15.427Z,36.25
2019-06-27T13:08:42.930Z,36.22
2019-06-27T13:11:10.452Z,36.23
2019-06-27T13:13:38.055Z,36.46
2019-06-27T13:16:05.489Z,36.70
2019-06-27T13:18:33.313Z,37.05
2019-06-27T13:21:00.734Z,37.29
2019-06-27T13:23:28.275Z,37.15
2019-06-27T13:25:55.859Z,36.86
2019-06-27T13:28:24.173Z,36.82
2019-06-27T13:30:51.663Z,36.84
2019-06-27T13:33:19.220Z,36.57
2019-06-27T13:35:49.113Z,36.42
2019-06-27T13:38:14.486Z,36.55
2019-06-27T13:40:41.979Z,36.55
2019-06-27T13:43:09.481Z,36.51
2019-06-27T13:45:36.943Z,36.53
2019-06-27T13:48:04.507Z,36.57
2019-06-27T13:50:31.915Z,36.69
2019-06-27T13:52:59.578Z,36.68
2019-06-27T13:55:27.049Z,36.89
2019-06-27T13:57:57.519Z,36.79
2019-06-27T14:00:43.152Z,36.97
2019-06-27T14:03:10.603Z,36.69
2019-06-27T14:05:38.034Z,36.84
2019-06-27T14:08:05.436Z,36.81
2019-06-27T14:10:32.915Z,36.71
2019-06-27T14:13:00.635Z,36.70
2019-06-27T14:15:28.165Z,36.78
2019-06-27T14:17:55.742Z,36.96
2019-06-27T14:20:24.031Z,36.77
2019-06-27T14:22:51.443Z,36.83
2019-06-27T14:25:18.888Z,36.98
2019-06-27T14:27:46.311Z,37.16
2019-06-27T14:30:13.722Z,37.29
2019-06-27T14:32:41.320Z,37.21
2019-06-27T14:35:15.146Z,37.08
2019-06-27T14:37:36.666Z,36.96
2019-06-27T14:40:05.921Z,37.02
2019-06-27T14:42:34.219Z,37.26
2019-06-27T14:45:01.765Z,37.42
2019-06-27T14:47:29.339Z,37.49
2019-06-27T14:49:56.774Z,37.52
2019-06-27T14:52:24.677Z,37.63
2019-06-27T14:54:52.126Z,37.78
2019-06-27T14:57:20.040Z,37.53
2019-06-27T14:59:47.439Z,37.11
2019-06-27T15:02:15.528Z,36.78
2019-06-27T15:04:43.007Z,36.67
2019-06-27T15:07:11.269Z,36.48
2019-06-27T15:09:38.803Z,36.30
2019-06-27T15:12:07.045Z,36.28
2019-06-27T15:14:34.924Z,36.20
2019-06-27T15:17:02.420Z,36.14
2019-06-27T15:19:29.879Z,36.24
2019-06-27T15:21:57.474Z,36.26
2019-06-27T15:24:25.013Z,36.21
2019-06-27T15:26:52.784Z,36.16
2019-06-27T15:29:20.316Z,36.24
2019-06-27T15:31:48.079Z,36.27
2019-06-27T15:34:15.503Z,36.36
2019-06-27T15:36:44.187Z,36.35
2019-06-27T15:39:12.163Z,36.36
2019-06-27T15:41:39.336Z,36.43
2019-06-27T15:44:06.751Z,36.42
2019-06-27T15:46:34.209Z,36.45
2019-06-27T15:49:01.643Z,36.46
2019-06-27T15:51:29.388Z,36.40
2019-06-27T15:53:56.903Z,36.36
2019-06-27T15:56:25.162Z,36.22
2019-06-27T15:58:52.712Z,35.99
2019-06-27T16:01:20.299Z,35.91
2019-06-27T16:03:47.786Z,35.78
2019-06-27T16:06:15.333Z,35.61
2019-06-27T16:08:42.686Z,35.44
2019-06-27T16:11:10.328Z,35.26
2019-06-27T16:13:37.759Z,35.08
2019-06-27T16:16:05.200Z,35.04
2019-06-27T16:18:32.612Z,35.07
2019-06-27T16:21:00.896Z,35.02
2019-06-27T16:23:28.323Z,35.00
2019-06-27T16:25:56.107Z,34.89
2019-06-27T16:28:26.785Z,34.69
2019-06-27T16:30:51.289Z,34.54
2019-06-27T16:33:18.844Z,34.33
2019-06-27T16:35:46.524Z,34.16
2019-06-27T16:38:13.987Z,34.00
2019-06-27T16:40:41.612Z,33.95
2019-06-27T16:43:09.247Z,33.97
2019-06-27T16:45:40.299Z,33.94
2019-06-27T16:48:04.755Z,33.97
2019-06-27T16:50:32.299Z,33.92
2019-06-27T16:52:59.772Z,33.81
2019-06-27T16:55:27.379Z,33.79
2019-06-27T16:57:54.841Z,33.84
2019-06-27T17:00:22.515Z,33.84
2019-06-27T17:02:50.073Z,33.79
2019-06-27T17:05:18.257Z,33.83
2019-06-27T17:07:45.911Z,33.69
2019-06-27T17:10:14.191Z,33.74
2019-06-27T17:12:41.774Z,33.72
2019-06-27T17:15:09.376Z,33.68
2019-06-27T17:17:36.871Z,33.67
2019-06-27T17:20:06.317Z,33.63
2019-06-27T17:22:33.922Z,33.77
2019-06-27T17:25:01.485Z,33.99
2019-06-27T17:27:28.965Z,34.28
2019-06-27T17:29:56.468Z,34.49
2019-06-27T17:32:24.226Z,34.58
2019-06-27T17:34:52.027Z,34.52
2019-06-27T17:37:19.478Z,34.62
2019-06-27T17:39:46.952Z,34.88
2019-06-27T17:42:14.652Z,35.08
2019-06-27T17:44:42.662Z,35.35
2019-06-27T17:47:10.995Z,35.50
2019-06-27T17:49:38.392Z,35.71
2019-06-27T17:52:05.845Z,35.72
2019-06-27T17:54:33.719Z,35.76
2019-06-27T17:57:01.170Z,35.66
2019-06-27T17:59:28.622Z,35.68
2019-06-27T18:01:56.114Z,35.78
2019-06-27T18:04:23.547Z,35.75
2019-06-27T18:06:51.813Z,35.60
2019-06-27T18:09:19.269Z,35.46
2019-06-27T18:11:46.702Z,35.37
2019-06-27T18:14:14.376Z,35.32
2019-06-27T18:16:41.833Z,35.28
2019-06-27T18:19:09.562Z,35.28
2019-06-27T18:21:37.011Z,35.24
2019-06-27T18:24:04.490Z,35.19
2019-06-27T18:26:32.093Z,35.15
2019-06-27T18:29:00.055Z,35.15
2019-06-27T18:31:27.495Z,35.16
2019-06-27T18:33:55.263Z,35.07
2019-06-27T18:36:22.737Z,35.05
2019-06-27T18:38:50.522Z,35.05
2019-06-27T18:41:17.940Z,35.03
2019-06-27T18:43:45.546Z,34.89
2019-06-27T18:46:13.046Z,34.68
2019-06-27T18:48:40.648Z,34.54
2019-06-27T18:51:08.136Z,34.47
2019-06-27T18:53:35.906Z,34.44
2019-06-27T18:56:03.341Z,34.39
2019-06-27T18:58:31.503Z,34.25
2019-06-27T19:00:58.952Z,34.07
2019-06-27T19:03:26.579Z,33.95
2019-06-27T19:05:54.023Z,33.84
2019-06-27T19:08:21.422Z,33.66
2019-06-27T19:10:48.944Z,33.46
2019-06-27T19:13:16.434Z,33.36
2019-06-27T19:15:43.864Z,33.35
2019-06-27T19:18:16.801Z,33.30
2019-06-27T19:20:45.008Z,33.28
2019-06-27T19:23:26.894Z,33.22
2019-06-27T19:25:54.353Z,33.14
2019-06-27T19:28:21.839Z,33.02
2019-06-27T19:30:49.379Z,32.84
2019-06-27T19:33:16.835Z,32.68
2019-06-27T19:35:44.247Z,32.58
2019-06-27T19:38:11.689Z,32.51
2019-06-27T19:40:39.131Z,32.43
2019-06-27T19:43:06.852Z,32.32
2019-06-27T19:45:34.298Z,32.20
2019-06-27T19:48:01.958Z,32.10
2019-06-27T19:50:29.416Z,32.03
2019-06-27T19:52:56.830Z,31.95
2019-06-27T19:55:24.252Z,31.89
2019-06-27T19:57:52.856Z,31.82
2019-06-27T20:00:20.400Z,31.76
2019-06-27T20:02:48.120Z,31.57
2019-06-27T20:05:15.547Z,31.43
2019-06-27T20:07:43.524Z,31.36
2019-06-27T20:10:11.971Z,31.27
2019-06-27T20:12:38.782Z,31.18
2019-06-27T20:15:06.540Z,31.15
2019-06-27T20:17:34.133Z,31.14
2019-06-27T20:20:01.538Z,31.13
2019-06-27T20:22:29.187Z,31.01
2019-06-27T20:24:57.089Z,30.86
2019-06-27T20:27:24.723Z,30.80
2019-06-27T20:29:52.138Z,30.76
2019-06-27T20:32:19.592Z,30.69
2019-06-27T20:34:46.991Z,30.58
2019-06-27T20:37:14.518Z,30.57
2019-06-27T20:39:41.934Z,30.60
2019-06-27T20:42:09.920Z,30.57
2019-06-27T20:44:37.393Z,30.45
2019-06-27T20:47:04.801Z,30.33
2019-06-27T20:49:32.246Z,30.25
2019-06-27T20:52:00.151Z,30.22
2019-06-27T20:54:27.607Z,30.18
2019-06-27T20:56:55.270Z,30.15
2019-06-27T20:59:22.678Z,30.19
2019-06-27T21:01:50.221Z,30.26
2019-06-27T21:04:17.636Z,30.30
2019-06-27T21:06:45.099Z,30.32
2019-06-27T21:09:12.506Z,30.31
2019-06-27T21:11:40.487Z,30.28
2019-06-27T21:14:07.915Z,30.24
2019-06-27T21:16:35.702Z,30.27
2019-06-27T21:19:03.199Z,30.24
2019-06-27T21:21:31.173Z,30.09
2019-06-27T21:23:58.603Z,30.00
2019-06-27T21:26:26.023Z,29.84
2019-06-27T21:28:53.446Z,29.75
2019-06-27T21:31:20.978Z,29.74
2019-06-27T21:33:48.614Z,29.68
2019-06-27T21:36:16.247Z,29.69
2019-06-27T21:38:43.695Z,29.66
2019-06-27T21:41:11.123Z,29.58
2019-06-27T21:43:38.079Z,29.54
2019-06-27T21:46:05.053Z,29.47
2019-06-27T21:48:32.042Z,29.47
2019-06-27T21:50:59.117Z,29.45
2019-06-27T21:53:26.108Z,29.36
2019-06-27T21:55:53.623Z,29.28
2019-06-27T21:58:20.590Z,29.25
2019-06-27T22:00:47.598Z,29.22
2019-06-27T22:03:14.584Z,29.19
2019-06-27T22:05:41.618Z,29.15
2019-06-27T22:08:08.607Z,29.14
2019-06-27T22:10:35.560Z,29.16
2019-06-27T22:13:02.575Z,29.11
2019-06-27T22:15:29.583Z,29.08
2019-06-27T22:17:56.696Z,29.02
2019-06-27T22:20:23.687Z,28.96
2019-06-27T22:22:50.739Z,28.91
2019-06-27T22:25:17.717Z,28.92
2019-06-27T22:27:45.601Z,28.87
2019-06-27T22:30:12.701Z,28.87
2019-06-27T22:32:39.637Z,28.87
2019-06-27T22:35:06.662Z,28.77
2019-06-27T22:37:33.263Z,28.72
2019-06-27T22:40:06.049Z,28.69
2019-06-27T22:42:39.126Z,28.70
2019-06-27T22:45:11.743Z,28.70
2019-06-27T22:47:44.386Z,28.72
2019-06-27T22:50:17.063Z,28.70
2019-06-27T22:55:37.880Z,28.90
2019-06-27T22:58:04.908Z,28.85
2019-06-27T23:00:31.987Z,28.74
2019-06-27T23:02:58.959Z,28.59
2019-06-27T23:05:26.004Z,28.53
2019-06-27T23:07:52.954Z,28.45
2019-06-27T23:10:19.947Z,28.42
2019-06-27T23:12:46.898Z,28.41
2019-06-27T23:15:13.873Z,28.39
2019-06-27T23:17:41.912Z,28.36
2019-06-27T23:20:09.707Z,28.31
2019-06-27T23:22:36.656Z,28.23
2019-06-27T23:25:03.612Z,28.17
2019-06-27T23:27:30.628Z,28.10
2019-06-27T23:29:57.761Z,28.04
2019-06-27T23:32:24.693Z,27.99
2019-06-27T23:34:51.711Z,27.91
2019-06-27T23:37:18.706Z,27.86
2019-06-27T23:39:45.677Z,27.88
2019-06-27T23:42:12.809Z,27.87
2019-06-27T23:44:39.754Z,27.78
2019-06-27T23:47:07.430Z,27.72
2019-06-27T23:49:34.782Z,27.77
2019-06-27T23:52:01.777Z,27.72
2019-06-27T23:54:28.697Z,27.74
2019-06-27T23:56:55.695Z,27.76
2019-06-27T23:59:22.675Z,27.76
